sensor_id;sensor_type;location;lat;lon;timestamp;P1;durP1;ratioP1;P2;durP2;ratioP2
71042;SDS011;58696;52.134;5.500;2023-11-19T00:00:11;10.90;;;3.53;;
71042;SDS011;58696;52.134;5.500;2023-11-19T00:02:39;14.60;;;4.35;;
71042;SDS011;58696;52.134;5.500;2023-11-19T00:05:09;9.93;;;3.22;;
71042;SDS011;58696;52.134;5.500;2023-11-19T00:07:39;10.23;;;2.90;;
71042;SDS011;58696;52.134;5.500;2023-11-19T00:10:12;13.85;;;3.50;;
71042;SDS011;58696;52.134;5.500;2023-11-19T00:12:41;12.85;;;3.17;;
71042;SDS011;58696;52.134;5.500;2023-11-19T00:15:11;13.27;;;4.13;;
71042;SDS011;58696;52.134;5.500;2023-11-19T00:17:42;7.05;;;2.90;;
71042;SDS011;58696;52.134;5.500;2023-11-19T00:20:15;22.30;;;3.60;;
71042;SDS011;58696;52.134;5.500;2023-11-19T00:22:43;10.85;;;2.97;;
71042;SDS011;58696;52.134;5.500;2023-11-19T00:25:14;12.57;;;3.42;;
71042;SDS011;58696;52.134;5.500;2023-11-19T00:27:41;12.68;;;4.65;;
71042;SDS011;58696;52.134;5.500;2023-11-19T00:30:10;19.67;;;3.70;;
71042;SDS011;58696;52.134;5.500;2023-11-19T00:32:43;11.20;;;3.72;;
71042;SDS011;58696;52.134;5.500;2023-11-19T00:35:10;12.67;;;4.73;;
71042;SDS011;58696;52.134;5.500;2023-11-19T00:37:43;16.00;;;4.82;;
71042;SDS011;58696;52.134;5.500;2023-11-19T00:40:16;15.82;;;2.80;;
71042;SDS011;58696;52.134;5.500;2023-11-19T00:42:49;14.35;;;3.60;;
71042;SDS011;58696;52.134;5.500;2023-11-19T00:45:16;19.60;;;3.20;;
71042;SDS011;58696;52.134;5.500;2023-11-19T00:47:42;13.50;;;3.60;;
71042;SDS011;58696;52.134;5.500;2023-11-19T00:50:11;21.48;;;3.45;;
71042;SDS011;58696;52.134;5.500;2023-11-19T00:52:39;12.02;;;2.70;;
71042;SDS011;58696;52.134;5.500;2023-11-19T00:55:08;16.60;;;3.15;;
71042;SDS011;58696;52.134;5.500;2023-11-19T00:57:35;21.30;;;3.60;;
71042;SDS011;58696;52.134;5.500;2023-11-19T01:00:04;13.95;;;2.97;;
71042;SDS011;58696;52.134;5.500;2023-11-19T01:02:50;11.95;;;3.00;;
71042;SDS011;58696;52.134;5.500;2023-11-19T01:05:20;18.80;;;3.85;;
71042;SDS011;58696;52.134;5.500;2023-11-19T01:07:50;20.10;;;3.97;;
71042;SDS011;58696;52.134;5.500;2023-11-19T01:10:21;20.73;;;4.13;;
71042;SDS011;58696;52.134;5.500;2023-11-19T01:12:49;16.83;;;3.08;;
71042;SDS011;58696;52.134;5.500;2023-11-19T01:15:18;17.85;;;3.58;;
71042;SDS011;58696;52.134;5.500;2023-11-19T01:17:47;24.00;;;4.35;;
71042;SDS011;58696;52.134;5.500;2023-11-19T01:20:19;19.67;;;3.35;;
71042;SDS011;58696;52.134;5.500;2023-11-19T01:22:47;21.08;;;3.85;;
71042;SDS011;58696;52.134;5.500;2023-11-19T01:25:16;25.95;;;3.55;;
71042;SDS011;58696;52.134;5.500;2023-11-19T01:27:45;18.88;;;3.58;;
71042;SDS011;58696;52.134;5.500;2023-11-19T01:30:16;20.92;;;3.47;;
71042;SDS011;58696;52.134;5.500;2023-11-19T01:32:46;16.42;;;3.55;;
71042;SDS011;58696;52.134;5.500;2023-11-19T01:35:12;24.58;;;3.63;;
71042;SDS011;58696;52.134;5.500;2023-11-19T01:37:44;18.60;;;3.88;;
71042;SDS011;58696;52.134;5.500;2023-11-19T01:40:13;27.73;;;3.63;;
71042;SDS011;58696;52.134;5.500;2023-11-19T01:42:40;21.92;;;3.30;;
71042;SDS011;58696;52.134;5.500;2023-11-19T01:45:07;27.37;;;4.40;;
71042;SDS011;58696;52.134;5.500;2023-11-19T01:47:37;23.33;;;3.33;;
71042;SDS011;58696;52.134;5.500;2023-11-19T01:50:04;21.50;;;4.30;;
71042;SDS011;58696;52.134;5.500;2023-11-19T01:52:34;20.83;;;3.17;;
71042;SDS011;58696;52.134;5.500;2023-11-19T01:55:03;21.75;;;3.70;;
71042;SDS011;58696;52.134;5.500;2023-11-19T01:57:30;19.23;;;3.00;;
71042;SDS011;58696;52.134;5.500;2023-11-19T01:59:57;16.27;;;3.42;;
71042;SDS011;58696;52.134;5.500;2023-11-19T02:02:24;31.08;;;5.15;;
71042;SDS011;58696;52.134;5.500;2023-11-19T02:04:54;26.13;;;4.32;;
71042;SDS011;58696;52.134;5.500;2023-11-19T02:07:20;28.58;;;4.97;;
71042;SDS011;58696;52.134;5.500;2023-11-19T02:09:47;23.40;;;3.72;;
71042;SDS011;58696;52.134;5.500;2023-11-19T02:12:16;22.52;;;3.67;;
71042;SDS011;58696;52.134;5.500;2023-11-19T02:14:43;24.77;;;4.70;;
71042;SDS011;58696;52.134;5.500;2023-11-19T02:17:25;22.02;;;4.72;;
71042;SDS011;58696;52.134;5.500;2023-11-19T02:19:52;18.45;;;3.70;;
71042;SDS011;58696;52.134;5.500;2023-11-19T02:22:19;23.23;;;3.85;;
71042;SDS011;58696;52.134;5.500;2023-11-19T02:24:46;25.10;;;3.33;;
71042;SDS011;58696;52.134;5.500;2023-11-19T02:27:21;24.58;;;4.57;;
71042;SDS011;58696;52.134;5.500;2023-11-19T02:30:09;18.88;;;4.15;;
71042;SDS011;58696;52.134;5.500;2023-11-19T02:32:37;28.83;;;4.75;;
71042;SDS011;58696;52.134;5.500;2023-11-19T02:35:07;23.13;;;4.28;;
71042;SDS011;58696;52.134;5.500;2023-11-19T02:37:35;24.73;;;5.30;;
71042;SDS011;58696;52.134;5.500;2023-11-19T02:40:05;32.63;;;4.95;;
71042;SDS011;58696;52.134;5.500;2023-11-19T02:42:35;22.70;;;4.38;;
71042;SDS011;58696;52.134;5.500;2023-11-19T02:45:02;29.90;;;4.13;;
71042;SDS011;58696;52.134;5.500;2023-11-19T02:47:32;35.65;;;5.32;;
71042;SDS011;58696;52.134;5.500;2023-11-19T02:50:00;28.20;;;4.45;;
71042;SDS011;58696;52.134;5.500;2023-11-19T02:52:27;32.28;;;4.88;;
71042;SDS011;58696;52.134;5.500;2023-11-19T02:54:53;30.38;;;4.85;;
71042;SDS011;58696;52.134;5.500;2023-11-19T02:57:20;26.05;;;3.88;;
71042;SDS011;58696;52.134;5.500;2023-11-19T02:59:48;25.52;;;5.03;;
71042;SDS011;58696;52.134;5.500;2023-11-19T03:02:15;31.02;;;6.28;;
71042;SDS011;58696;52.134;5.500;2023-11-19T03:04:44;31.63;;;5.07;;
71042;SDS011;58696;52.134;5.500;2023-11-19T03:07:12;25.02;;;4.10;;
71042;SDS011;58696;52.134;5.500;2023-11-19T03:09:41;28.15;;;5.28;;
71042;SDS011;58696;52.134;5.500;2023-11-19T03:12:07;37.38;;;6.05;;
71042;SDS011;58696;52.134;5.500;2023-11-19T03:14:37;34.55;;;5.38;;
71042;SDS011;58696;52.134;5.500;2023-11-19T03:17:05;32.75;;;4.65;;
71042;SDS011;58696;52.134;5.500;2023-11-19T03:19:32;39.13;;;4.78;;
71042;SDS011;58696;52.134;5.500;2023-11-19T03:21:59;42.55;;;5.30;;
71042;SDS011;58696;52.134;5.500;2023-11-19T03:24:29;34.92;;;5.43;;
71042;SDS011;58696;52.134;5.500;2023-11-19T03:26:57;30.60;;;4.45;;
71042;SDS011;58696;52.134;5.500;2023-11-19T03:29:25;32.20;;;4.78;;
71042;SDS011;58696;52.134;5.500;2023-11-19T03:31:52;29.15;;;5.38;;
71042;SDS011;58696;52.134;5.500;2023-11-19T03:34:21;26.33;;;4.85;;
71042;SDS011;58696;52.134;5.500;2023-11-19T03:36:48;37.50;;;5.60;;
71042;SDS011;58696;52.134;5.500;2023-11-19T03:39:15;33.78;;;4.88;;
71042;SDS011;58696;52.134;5.500;2023-11-19T03:41:47;33.47;;;4.95;;
71042;SDS011;58696;52.134;5.500;2023-11-19T03:44:16;31.50;;;5.00;;
71042;SDS011;58696;52.134;5.500;2023-11-19T03:46:45;29.02;;;5.10;;
71042;SDS011;58696;52.134;5.500;2023-11-19T03:49:13;40.38;;;5.00;;
71042;SDS011;58696;52.134;5.500;2023-11-19T03:51:44;33.92;;;5.10;;
71042;SDS011;58696;52.134;5.500;2023-11-19T03:54:11;36.13;;;5.38;;
71042;SDS011;58696;52.134;5.500;2023-11-19T03:56:40;34.63;;;5.88;;
71042;SDS011;58696;52.134;5.500;2023-11-19T03:59:06;34.00;;;5.10;;
71042;SDS011;58696;52.134;5.500;2023-11-19T04:01:36;29.10;;;4.40;;
71042;SDS011;58696;52.134;5.500;2023-11-19T04:04:06;35.03;;;5.85;;
71042;SDS011;58696;52.134;5.500;2023-11-19T04:06:35;31.15;;;5.00;;
71042;SDS011;58696;52.134;5.500;2023-11-19T04:09:02;28.85;;;6.32;;
71042;SDS011;58696;52.134;5.500;2023-11-19T04:11:29;26.70;;;4.55;;
71042;SDS011;58696;52.134;5.500;2023-11-19T04:13:57;37.00;;;5.22;;
71042;SDS011;58696;52.134;5.500;2023-11-19T04:16:29;31.85;;;5.07;;
71042;SDS011;58696;52.134;5.500;2023-11-19T04:18:59;33.75;;;5.18;;
71042;SDS011;58696;52.134;5.500;2023-11-19T04:21:28;33.58;;;6.25;;
71042;SDS011;58696;52.134;5.500;2023-11-19T04:23:57;36.60;;;5.65;;
71042;SDS011;58696;52.134;5.500;2023-11-19T04:26:27;25.65;;;4.95;;
71042;SDS011;58696;52.134;5.500;2023-11-19T04:28:55;33.17;;;4.88;;
71042;SDS011;58696;52.134;5.500;2023-11-19T04:31:28;44.70;;;4.95;;
71042;SDS011;58696;52.134;5.500;2023-11-19T04:33:58;41.05;;;5.85;;
71042;SDS011;58696;52.134;5.500;2023-11-19T04:36:27;40.65;;;6.30;;
71042;SDS011;58696;52.134;5.500;2023-11-19T04:38:56;40.58;;;6.15;;
71042;SDS011;58696;52.134;5.500;2023-11-19T04:41:25;29.15;;;5.18;;
71042;SDS011;58696;52.134;5.500;2023-11-19T04:43:55;33.85;;;5.82;;
71042;SDS011;58696;52.134;5.500;2023-11-19T04:46:24;28.67;;;5.70;;
71042;SDS011;58696;52.134;5.500;2023-11-19T04:48:51;34.15;;;5.45;;
71042;SDS011;58696;52.134;5.500;2023-11-19T04:51:17;34.78;;;6.25;;
71042;SDS011;58696;52.134;5.500;2023-11-19T04:53:49;33.55;;;4.43;;
71042;SDS011;58696;52.134;5.500;2023-11-19T04:56:15;36.78;;;5.13;;
71042;SDS011;58696;52.134;5.500;2023-11-19T04:58:45;28.73;;;5.15;;
71042;SDS011;58696;52.134;5.500;2023-11-19T05:01:17;33.45;;;5.05;;
71042;SDS011;58696;52.134;5.500;2023-11-19T05:03:44;29.73;;;4.50;;
71042;SDS011;58696;52.134;5.500;2023-11-19T05:06:12;33.33;;;5.18;;
71042;SDS011;58696;52.134;5.500;2023-11-19T05:08:41;35.40;;;6.20;;
71042;SDS011;58696;52.134;5.500;2023-11-19T05:11:08;31.40;;;5.25;;
71042;SDS011;58696;52.134;5.500;2023-11-19T05:13:38;34.90;;;5.35;;
71042;SDS011;58696;52.134;5.500;2023-11-19T05:16:04;40.17;;;5.68;;
71042;SDS011;58696;52.134;5.500;2023-11-19T05:18:32;32.45;;;4.88;;
71042;SDS011;58696;52.134;5.500;2023-11-19T05:20:58;26.40;;;5.05;;
71042;SDS011;58696;52.134;5.500;2023-11-19T05:23:25;35.60;;;5.75;;
71042;SDS011;58696;52.134;5.500;2023-11-19T05:25:54;25.20;;;5.63;;
71042;SDS011;58696;52.134;5.500;2023-11-19T05:28:21;38.30;;;5.50;;
71042;SDS011;58696;52.134;5.500;2023-11-19T05:30:47;35.22;;;5.60;;
71042;SDS011;58696;52.134;5.500;2023-11-19T05:33:16;33.50;;;5.55;;
71042;SDS011;58696;52.134;5.500;2023-11-19T05:35:47;26.88;;;5.40;;
71042;SDS011;58696;52.134;5.500;2023-11-19T05:38:16;33.58;;;5.30;;
71042;SDS011;58696;52.134;5.500;2023-11-19T05:40:47;28.92;;;4.60;;
71042;SDS011;58696;52.134;5.500;2023-11-19T05:43:16;28.25;;;5.55;;
71042;SDS011;58696;52.134;5.500;2023-11-19T05:45:45;34.72;;;4.95;;
71042;SDS011;58696;52.134;5.500;2023-11-19T05:48:13;31.15;;;5.03;;
71042;SDS011;58696;52.134;5.500;2023-11-19T05:50:40;28.27;;;5.10;;
71042;SDS011;58696;52.134;5.500;2023-11-19T05:53:09;34.22;;;6.03;;
71042;SDS011;58696;52.134;5.500;2023-11-19T05:55:36;39.03;;;5.45;;
71042;SDS011;58696;52.134;5.500;2023-11-19T05:58:11;31.10;;;5.88;;
71042;SDS011;58696;52.134;5.500;2023-11-19T06:00:38;36.40;;;5.25;;
71042;SDS011;58696;52.134;5.500;2023-11-19T06:03:08;31.67;;;5.88;;
71042;SDS011;58696;52.134;5.500;2023-11-19T06:05:34;26.83;;;5.60;;
71042;SDS011;58696;52.134;5.500;2023-11-19T06:08:03;38.78;;;5.60;;
71042;SDS011;58696;52.134;5.500;2023-11-19T06:10:33;30.10;;;5.68;;
71042;SDS011;58696;52.134;5.500;2023-11-19T06:13:02;35.70;;;5.78;;
71042;SDS011;58696;52.134;5.500;2023-11-19T06:15:31;43.75;;;7.22;;
71042;SDS011;58696;52.134;5.500;2023-11-19T06:18:02;35.15;;;5.93;;
71042;SDS011;58696;52.134;5.500;2023-11-19T06:20:30;27.60;;;6.05;;
71042;SDS011;58696;52.134;5.500;2023-11-19T06:23:08;23.95;;;4.97;;
71042;SDS011;58696;52.134;5.500;2023-11-19T06:25:37;28.73;;;4.70;;
71042;SDS011;58696;52.134;5.500;2023-11-19T06:28:04;33.85;;;5.57;;
71042;SDS011;58696;52.134;5.500;2023-11-19T06:30:31;27.48;;;5.10;;
71042;SDS011;58696;52.134;5.500;2023-11-19T06:33:04;35.67;;;6.22;;
71042;SDS011;58696;52.134;5.500;2023-11-19T06:35:31;38.67;;;6.22;;
71042;SDS011;58696;52.134;5.500;2023-11-19T06:38:05;38.22;;;6.32;;
71042;SDS011;58696;52.134;5.500;2023-11-19T06:40:33;41.65;;;5.60;;
71042;SDS011;58696;52.134;5.500;2023-11-19T06:43:03;27.73;;;6.32;;
71042;SDS011;58696;52.134;5.500;2023-11-19T06:45:33;29.15;;;5.03;;
71042;SDS011;58696;52.134;5.500;2023-11-19T06:48:05;43.13;;;5.55;;
71042;SDS011;58696;52.134;5.500;2023-11-19T06:50:34;40.17;;;5.93;;
71042;SDS011;58696;52.134;5.500;2023-11-19T06:53:03;34.30;;;5.78;;
71042;SDS011;58696;52.134;5.500;2023-11-19T06:55:36;25.95;;;6.28;;
71042;SDS011;58696;52.134;5.500;2023-11-19T06:58:08;45.58;;;6.30;;
71042;SDS011;58696;52.134;5.500;2023-11-19T07:00:38;35.05;;;6.80;;
71042;SDS011;58696;52.134;5.500;2023-11-19T07:03:07;25.45;;;5.20;;
71042;SDS011;58696;52.134;5.500;2023-11-19T07:05:38;28.27;;;5.20;;
71042;SDS011;58696;52.134;5.500;2023-11-19T07:08:05;32.35;;;4.93;;
71042;SDS011;58696;52.134;5.500;2023-11-19T07:10:33;29.52;;;5.00;;
71042;SDS011;58696;52.134;5.500;2023-11-19T07:13:02;33.15;;;5.32;;
71042;SDS011;58696;52.134;5.500;2023-11-19T07:15:32;27.90;;;4.90;;
71042;SDS011;58696;52.134;5.500;2023-11-19T07:17:59;41.17;;;6.40;;
71042;SDS011;58696;52.134;5.500;2023-11-19T07:20:28;35.25;;;4.85;;
71042;SDS011;58696;52.134;5.500;2023-11-19T07:22:55;40.60;;;6.10;;
71042;SDS011;58696;52.134;5.500;2023-11-19T07:25:24;31.48;;;4.82;;
71042;SDS011;58696;52.134;5.500;2023-11-19T07:27:51;34.17;;;5.07;;
71042;SDS011;58696;52.134;5.500;2023-11-19T07:30:18;29.20;;;5.15;;
71042;SDS011;58696;52.134;5.500;2023-11-19T07:32:45;32.95;;;5.57;;
71042;SDS011;58696;52.134;5.500;2023-11-19T07:35:14;37.67;;;5.35;;
71042;SDS011;58696;52.134;5.500;2023-11-19T07:37:42;26.95;;;4.78;;
71042;SDS011;58696;52.134;5.500;2023-11-19T07:40:08;31.30;;;5.75;;
71042;SDS011;58696;52.134;5.500;2023-11-19T07:42:38;33.80;;;4.90;;
71042;SDS011;58696;52.134;5.500;2023-11-19T07:45:04;37.03;;;5.80;;
71042;SDS011;58696;52.134;5.500;2023-11-19T07:47:31;33.87;;;5.57;;
71042;SDS011;58696;52.134;5.500;2023-11-19T07:49:58;30.92;;;5.18;;
71042;SDS011;58696;52.134;5.500;2023-11-19T07:52:27;33.03;;;5.68;;
71042;SDS011;58696;52.134;5.500;2023-11-19T07:54:56;34.90;;;5.70;;
71042;SDS011;58696;52.134;5.500;2023-11-19T07:57:22;26.58;;;4.97;;
71042;SDS011;58696;52.134;5.500;2023-11-19T07:59:50;38.88;;;5.93;;
71042;SDS011;58696;52.134;5.500;2023-11-19T08:02:17;33.38;;;5.43;;
71042;SDS011;58696;52.134;5.500;2023-11-19T08:04:46;30.15;;;5.53;;
71042;SDS011;58696;52.134;5.500;2023-11-19T08:07:13;38.42;;;5.05;;
71042;SDS011;58696;52.134;5.500;2023-11-19T08:09:44;35.65;;;7.18;;
71042;SDS011;58696;52.134;5.500;2023-11-19T08:12:13;27.58;;;4.97;;
71042;SDS011;58696;52.134;5.500;2023-11-19T08:14:42;33.17;;;4.40;;
71042;SDS011;58696;52.134;5.500;2023-11-19T08:17:10;40.58;;;6.20;;
71042;SDS011;58696;52.134;5.500;2023-11-19T08:19:36;35.60;;;5.63;;
71042;SDS011;58696;52.134;5.500;2023-11-19T08:22:03;29.58;;;4.97;;
71042;SDS011;58696;52.134;5.500;2023-11-19T08:24:30;25.60;;;4.72;;
71042;SDS011;58696;52.134;5.500;2023-11-19T08:26:56;32.17;;;5.85;;
71042;SDS011;58696;52.134;5.500;2023-11-19T08:29:25;34.20;;;5.05;;
71042;SDS011;58696;52.134;5.500;2023-11-19T08:31:53;32.10;;;5.13;;
71042;SDS011;58696;52.134;5.500;2023-11-19T08:34:20;34.92;;;5.13;;
71042;SDS011;58696;52.134;5.500;2023-11-19T08:36:50;34.70;;;6.03;;
71042;SDS011;58696;52.134;5.500;2023-11-19T08:39:19;32.80;;;5.28;;
71042;SDS011;58696;52.134;5.500;2023-11-19T08:41:48;36.60;;;5.93;;
71042;SDS011;58696;52.134;5.500;2023-11-19T08:44:17;20.20;;;4.32;;
71042;SDS011;58696;52.134;5.500;2023-11-19T08:46:47;30.75;;;5.40;;
71042;SDS011;58696;52.134;5.500;2023-11-19T08:49:15;29.67;;;5.07;;
71042;SDS011;58696;52.134;5.500;2023-11-19T08:51:41;25.20;;;4.57;;
71042;SDS011;58696;52.134;5.500;2023-11-19T08:54:08;27.15;;;5.60;;
71042;SDS011;58696;52.134;5.500;2023-11-19T08:56:37;25.35;;;4.57;;
71042;SDS011;58696;52.134;5.500;2023-11-19T08:59:06;28.80;;;5.35;;
71042;SDS011;58696;52.134;5.500;2023-11-19T09:01:35;30.05;;;5.18;;
71042;SDS011;58696;52.134;5.500;2023-11-19T09:04:01;33.95;;;5.13;;
71042;SDS011;58696;52.134;5.500;2023-11-19T09:06:28;36.38;;;5.70;;
71042;SDS011;58696;52.134;5.500;2023-11-19T09:08:55;33.40;;;5.30;;
71042;SDS011;58696;52.134;5.500;2023-11-19T09:11:27;28.88;;;4.70;;
71042;SDS011;58696;52.134;5.500;2023-11-19T09:13:57;30.08;;;5.20;;
71042;SDS011;58696;52.134;5.500;2023-11-19T09:16:24;33.03;;;7.00;;
71042;SDS011;58696;52.134;5.500;2023-11-19T09:18:51;22.98;;;4.18;;
71042;SDS011;58696;52.134;5.500;2023-11-19T09:21:18;24.75;;;4.10;;
71042;SDS011;58696;52.134;5.500;2023-11-19T09:23:44;27.23;;;4.10;;
71042;SDS011;58696;52.134;5.500;2023-11-19T09:26:14;23.77;;;4.97;;
71042;SDS011;58696;52.134;5.500;2023-11-19T09:28:43;20.38;;;4.50;;
71042;SDS011;58696;52.134;5.500;2023-11-19T09:31:13;29.33;;;5.47;;
71042;SDS011;58696;52.134;5.500;2023-11-19T09:33:43;35.53;;;5.70;;
71042;SDS011;58696;52.134;5.500;2023-11-19T09:36:14;37.20;;;5.82;;
71042;SDS011;58696;52.134;5.500;2023-11-19T09:38:40;29.17;;;4.78;;
71042;SDS011;58696;52.134;5.500;2023-11-19T09:41:09;26.73;;;5.22;;
71042;SDS011;58696;52.134;5.500;2023-11-19T09:43:39;25.92;;;4.82;;
71042;SDS011;58696;52.134;5.500;2023-11-19T09:46:09;31.00;;;5.05;;
71042;SDS011;58696;52.134;5.500;2023-11-19T09:48:44;27.95;;;4.45;;
71042;SDS011;58696;52.134;5.500;2023-11-19T09:51:11;36.25;;;5.50;;
71042;SDS011;58696;52.134;5.500;2023-11-19T09:53:38;32.63;;;5.03;;
71042;SDS011;58696;52.134;5.500;2023-11-19T09:56:05;34.13;;;5.30;;
71042;SDS011;58696;52.134;5.500;2023-11-19T09:58:34;30.35;;;5.03;;
71042;SDS011;58696;52.134;5.500;2023-11-19T10:01:00;27.75;;;4.30;;
71042;SDS011;58696;52.134;5.500;2023-11-19T10:03:35;29.05;;;6.03;;
71042;SDS011;58696;52.134;5.500;2023-11-19T10:06:06;27.02;;;5.32;;
71042;SDS011;58696;52.134;5.500;2023-11-19T10:08:33;39.30;;;5.05;;
71042;SDS011;58696;52.134;5.500;2023-11-19T10:11:06;29.38;;;4.55;;
71042;SDS011;58696;52.134;5.500;2023-11-19T10:13:35;26.67;;;4.88;;
71042;SDS011;58696;52.134;5.500;2023-11-19T10:16:08;28.05;;;5.50;;
71042;SDS011;58696;52.134;5.500;2023-11-19T10:18:46;23.65;;;4.72;;
71042;SDS011;58696;52.134;5.500;2023-11-19T10:21:19;39.00;;;5.75;;
71042;SDS011;58696;52.134;5.500;2023-11-19T10:23:50;17.23;;;3.65;;
71042;SDS011;58696;52.134;5.500;2023-11-19T10:26:23;19.85;;;3.83;;
71042;SDS011;58696;52.134;5.500;2023-11-19T10:28:52;25.20;;;4.13;;
71042;SDS011;58696;52.134;5.500;2023-11-19T10:31:20;27.02;;;4.75;;
71042;SDS011;58696;52.134;5.500;2023-11-19T10:33:51;24.45;;;4.57;;
71042;SDS011;58696;52.134;5.500;2023-11-19T10:36:21;19.92;;;4.72;;
71042;SDS011;58696;52.134;5.500;2023-11-19T10:39:03;31.75;;;4.30;;
71042;SDS011;58696;52.134;5.500;2023-11-19T10:41:30;35.53;;;5.60;;
71042;SDS011;58696;52.134;5.500;2023-11-19T10:44:00;17.30;;;3.90;;
71042;SDS011;58696;52.134;5.500;2023-11-19T10:46:39;27.08;;;4.50;;
71042;SDS011;58696;52.134;5.500;2023-11-19T10:49:13;34.22;;;4.75;;
71042;SDS011;58696;52.134;5.500;2023-11-19T10:51:46;39.70;;;5.40;;
71042;SDS011;58696;52.134;5.500;2023-11-19T10:54:18;20.17;;;3.75;;
71042;SDS011;58696;52.134;5.500;2023-11-19T10:56:48;27.25;;;5.50;;
71042;SDS011;58696;52.134;5.500;2023-11-19T10:59:30;32.88;;;4.95;;
71042;SDS011;58696;52.134;5.500;2023-11-19T11:02:00;40.80;;;5.15;;
71042;SDS011;58696;52.134;5.500;2023-11-19T11:04:33;25.65;;;5.00;;
71042;SDS011;58696;52.134;5.500;2023-11-19T11:07:08;25.23;;;4.45;;
71042;SDS011;58696;52.134;5.500;2023-11-19T11:09:40;33.70;;;4.72;;
71042;SDS011;58696;52.134;5.500;2023-11-19T11:12:12;26.70;;;5.30;;
71042;SDS011;58696;52.134;5.500;2023-11-19T11:14:39;26.67;;;4.80;;
71042;SDS011;58696;52.134;5.500;2023-11-19T11:17:10;24.27;;;5.25;;
71042;SDS011;58696;52.134;5.500;2023-11-19T11:19:39;22.55;;;4.75;;
71042;SDS011;58696;52.134;5.500;2023-11-19T11:22:09;26.67;;;4.60;;
71042;SDS011;58696;52.134;5.500;2023-11-19T11:37:46;26.77;;;4.68;;
71042;SDS011;58696;52.134;5.500;2023-11-19T11:40:18;24.33;;;4.32;;
71042;SDS011;58696;52.134;5.500;2023-11-19T11:42:45;26.50;;;4.15;;
71042;SDS011;58696;52.134;5.500;2023-11-19T11:45:17;39.67;;;6.63;;
71042;SDS011;58696;52.134;5.500;2023-11-19T11:48:05;30.30;;;5.10;;
71042;SDS011;58696;52.134;5.500;2023-11-19T11:50:57;27.20;;;5.57;;
71042;SDS011;58696;52.134;5.500;2023-11-19T11:53:24;26.98;;;4.60;;
71042;SDS011;58696;52.134;5.500;2023-11-19T11:55:56;33.53;;;4.30;;
71042;SDS011;58696;52.134;5.500;2023-11-19T11:58:26;30.33;;;4.75;;
71042;SDS011;58696;52.134;5.500;2023-11-19T12:00:59;25.98;;;4.10;;
71042;SDS011;58696;52.134;5.500;2023-11-19T12:03:28;20.25;;;3.80;;
71042;SDS011;58696;52.134;5.500;2023-11-19T12:05:56;27.08;;;4.82;;
71042;SDS011;58696;52.134;5.500;2023-11-19T12:08:27;31.80;;;4.55;;
71042;SDS011;58696;52.134;5.500;2023-11-19T12:10:58;25.40;;;4.57;;
71042;SDS011;58696;52.134;5.500;2023-11-19T12:16:33;28.95;;;4.68;;
71042;SDS011;58696;52.134;5.500;2023-11-19T12:19:04;28.08;;;4.85;;
71042;SDS011;58696;52.134;5.500;2023-11-19T12:23:59;28.33;;;5.10;;
71042;SDS011;58696;52.134;5.500;2023-11-19T12:26:34;26.98;;;4.20;;
71042;SDS011;58696;52.134;5.500;2023-11-19T12:29:04;28.70;;;4.43;;
71042;SDS011;58696;52.134;5.500;2023-11-19T12:31:37;22.50;;;3.83;;
71042;SDS011;58696;52.134;5.500;2023-11-19T12:34:05;31.70;;;3.83;;
71042;SDS011;58696;52.134;5.500;2023-11-19T12:38:59;14.13;;;3.10;;
71042;SDS011;58696;52.134;5.500;2023-11-19T12:41:26;16.48;;;2.95;;
71042;SDS011;58696;52.134;5.500;2023-11-19T12:44:08;27.55;;;4.10;;
71042;SDS011;58696;52.134;5.500;2023-11-19T12:46:38;21.15;;;3.70;;
71042;SDS011;58696;52.134;5.500;2023-11-19T12:49:07;19.63;;;4.13;;
71042;SDS011;58696;52.134;5.500;2023-11-19T12:51:33;19.48;;;3.75;;
71042;SDS011;58696;52.134;5.500;2023-11-19T12:54:00;21.27;;;3.85;;
71042;SDS011;58696;52.134;5.500;2023-11-19T12:56:31;20.45;;;3.45;;
71042;SDS011;58696;52.134;5.500;2023-11-19T12:59:11;25.80;;;4.70;;
71042;SDS011;58696;52.134;5.500;2023-11-19T13:01:39;25.88;;;4.05;;
71042;SDS011;58696;52.134;5.500;2023-11-19T13:04:17;28.83;;;4.18;;
71042;SDS011;58696;52.134;5.500;2023-11-19T13:06:48;16.75;;;3.97;;
71042;SDS011;58696;52.134;5.500;2023-11-19T13:09:36;18.58;;;4.07;;
71042;SDS011;58696;52.134;5.500;2023-11-19T13:12:12;22.58;;;4.63;;
71042;SDS011;58696;52.134;5.500;2023-11-19T13:17:08;17.10;;;3.65;;
71042;SDS011;58696;52.134;5.500;2023-11-19T13:19:37;26.38;;;4.80;;
71042;SDS011;58696;52.134;5.500;2023-11-19T13:22:08;23.48;;;5.35;;
71042;SDS011;58696;52.134;5.500;2023-11-19T13:24:35;28.90;;;4.35;;
71042;SDS011;58696;52.134;5.500;2023-11-19T13:27:06;23.30;;;4.50;;
71042;SDS011;58696;52.134;5.500;2023-11-19T13:29:33;21.02;;;5.28;;
71042;SDS011;58696;52.134;5.500;2023-11-19T13:32:05;17.13;;;3.95;;
71042;SDS011;58696;52.134;5.500;2023-11-19T13:34:32;30.90;;;4.60;;
71042;SDS011;58696;52.134;5.500;2023-11-19T13:37:03;18.65;;;3.53;;
71042;SDS011;58696;52.134;5.500;2023-11-19T13:39:30;27.45;;;4.13;;
71042;SDS011;58696;52.134;5.500;2023-11-19T13:41:59;25.85;;;4.32;;
71042;SDS011;58696;52.134;5.500;2023-11-19T13:44:31;26.20;;;4.65;;
71042;SDS011;58696;52.134;5.500;2023-11-19T13:47:00;20.77;;;3.95;;
71042;SDS011;58696;52.134;5.500;2023-11-19T13:49:27;27.20;;;4.25;;
71042;SDS011;58696;52.134;5.500;2023-11-19T13:51:54;20.50;;;4.30;;
71042;SDS011;58696;52.134;5.500;2023-11-19T13:54:23;26.58;;;4.32;;
71042;SDS011;58696;52.134;5.500;2023-11-19T13:56:55;26.38;;;4.78;;
71042;SDS011;58696;52.134;5.500;2023-11-19T13:59:24;24.95;;;3.60;;
71042;SDS011;58696;52.134;5.500;2023-11-19T14:01:51;25.63;;;4.80;;
71042;SDS011;58696;52.134;5.500;2023-11-19T14:04:17;22.08;;;3.88;;
71042;SDS011;58696;52.134;5.500;2023-11-19T14:06:47;26.33;;;4.57;;
71042;SDS011;58696;52.134;5.500;2023-11-19T14:09:14;14.88;;;2.63;;
71042;SDS011;58696;52.134;5.500;2023-11-19T14:11:40;24.83;;;3.60;;
71042;SDS011;58696;52.134;5.500;2023-11-19T14:14:09;19.90;;;3.28;;
71042;SDS011;58696;52.134;5.500;2023-11-19T14:16:38;20.73;;;4.40;;
71042;SDS011;58696;52.134;5.500;2023-11-19T14:19:07;23.83;;;4.20;;
71042;SDS011;58696;52.134;5.500;2023-11-19T14:21:34;20.45;;;3.53;;
71042;SDS011;58696;52.134;5.500;2023-11-19T14:24:00;19.02;;;3.30;;
71042;SDS011;58696;52.134;5.500;2023-11-19T14:26:27;19.25;;;3.95;;
71042;SDS011;58696;52.134;5.500;2023-11-19T14:28:53;18.63;;;3.80;;
71042;SDS011;58696;52.134;5.500;2023-11-19T14:31:23;20.05;;;4.35;;
71042;SDS011;58696;52.134;5.500;2023-11-19T14:33:56;24.25;;;4.30;;
71042;SDS011;58696;52.134;5.500;2023-11-19T14:36:23;16.52;;;3.40;;
71042;SDS011;58696;52.134;5.500;2023-11-19T14:38:51;17.83;;;2.85;;
71042;SDS011;58696;52.134;5.500;2023-11-19T14:41:20;22.45;;;4.13;;
71042;SDS011;58696;52.134;5.500;2023-11-19T14:43:47;25.58;;;4.15;;
71042;SDS011;58696;52.134;5.500;2023-11-19T14:46:16;21.50;;;3.58;;
71042;SDS011;58696;52.134;5.500;2023-11-19T14:48:42;20.08;;;4.45;;
71042;SDS011;58696;52.134;5.500;2023-11-19T14:51:11;18.52;;;4.00;;
71042;SDS011;58696;52.134;5.500;2023-11-19T14:53:39;27.85;;;3.90;;
71042;SDS011;58696;52.134;5.500;2023-11-19T14:56:10;17.58;;;3.60;;
71042;SDS011;58696;52.134;5.500;2023-11-19T14:58:36;22.48;;;4.35;;
71042;SDS011;58696;52.134;5.500;2023-11-19T15:01:05;26.90;;;4.78;;
71042;SDS011;58696;52.134;5.500;2023-11-19T15:03:33;20.75;;;5.25;;
71042;SDS011;58696;52.134;5.500;2023-11-19T15:06:22;23.20;;;4.45;;
71042;SDS011;58696;52.134;5.500;2023-11-19T15:08:49;25.95;;;4.97;;
71042;SDS011;58696;52.134;5.500;2023-11-19T15:11:21;35.13;;;4.90;;